createdAt,value
2024-01-24T00:01:17.889Z,95997.81
2024-01-24T00:03:45.486Z,95999.56
2024-01-24T00:06:13.037Z,96004.78
2024-01-24T00:08:40.523Z,95990.13
2024-01-24T00:11:08.016Z,95981.34
2024-01-24T00:13:35.527Z,95993.56
2024-01-24T00:16:03.023Z,95976.25
2024-01-24T00:18:32.027Z,95964.06
2024-01-24T00:20:59.553Z,95965.81
2024-01-24T00:23:27.072Z,95971.88
2024-01-24T00:25:54.598Z,95969.28
2024-01-24T00:28:22.916Z,95953.63
2024-01-24T00:30:50.657Z,95943.19
2024-01-24T00:33:18.310Z,95931.94
2024-01-24T00:35:47.166Z,95928.50
2024-01-24T00:38:14.646Z,95928.50
2024-01-24T00:40:42.604Z,95943.34
2024-01-24T00:43:10.173Z,95936.31
2024-01-24T00:45:37.764Z,95934.56
2024-01-24T00:48:05.740Z,95943.34
2024-01-24T00:50:33.300Z,95948.56
2024-01-24T00:53:04.682Z,95951.97
2024-01-24T00:55:32.442Z,95965.81
2024-01-24T00:58:00.327Z,95962.28
2024-01-24T01:00:27.872Z,95963.22
2024-01-24T01:02:55.436Z,95955.41
2024-01-24T01:05:23.063Z,95941.53
2024-01-24T01:07:50.567Z,95943.19
2024-01-24T01:10:19.485Z,95947.59
2024-01-24T01:12:47.030Z,95936.31
2024-01-24T01:15:14.626Z,95916.44
2024-01-24T01:17:42.342Z,95922.50
2024-01-24T01:20:11.189Z,95900.81
2024-01-24T01:22:39.059Z,95904.09
2024-01-24T01:25:06.968Z,95887.78
2024-01-24T01:27:35.867Z,95892.84
2024-01-24T01:30:03.387Z,95905.88
2024-01-24T01:32:30.902Z,95897.22
2024-01-24T01:34:58.424Z,95889.41
2024-01-24T01:37:25.904Z,95907.66
2024-01-24T01:39:53.680Z,95885.16
2024-01-24T01:42:21.321Z,95892.00
2024-01-24T01:44:50.145Z,95883.41
2024-01-24T01:47:18.336Z,95870.38
2024-01-24T01:49:46.519Z,95868.56
2024-01-24T01:52:14.797Z,95866.91
2024-01-24T01:54:43.193Z,95872.00
2024-01-24T01:57:12.589Z,95861.56
2024-01-24T01:59:41.525Z,95859.94
2024-01-24T02:02:11.572Z,95848.53
2024-01-24T02:04:39.102Z,95845.94
2024-01-24T02:07:06.931Z,95839.09
2024-01-24T02:09:35.432Z,95841.69
2024-01-24T02:12:02.966Z,95836.34
2024-01-24T02:14:30.437Z,95822.47
2024-01-24T02:16:57.952Z,95832.06
2024-01-24T02:19:27.356Z,95832.91
2024-01-24T02:21:54.984Z,95840.72
2024-01-24T02:24:24.165Z,95827.69
2024-01-24T02:26:51.768Z,95823.31
2024-01-24T02:29:19.430Z,95825.91
2024-01-24T02:31:46.949Z,95803.31
2024-01-24T02:34:14.558Z,95810.28
2024-01-24T02:36:42.216Z,95804.09
2024-01-24T02:39:09.915Z,95797.25
2024-01-24T02:41:40.317Z,95787.66
2024-01-24T02:44:07.851Z,95790.28
2024-01-24T02:46:35.345Z,95781.63
2024-01-24T02:49:03.185Z,95785.06
2024-01-24T02:51:30.886Z,95776.41
2024-01-24T02:53:58.425Z,95777.25
2024-01-24T02:56:25.961Z,95781.63
2024-01-24T02:58:54.803Z,95765.97
2024-01-24T03:01:22.414Z,95761.72
2024-01-24T03:03:50.080Z,95761.72
2024-01-24T03:06:17.919Z,95764.31
2024-01-24T03:08:49.181Z,95756.50
2024-01-24T03:11:16.787Z,95754.72
2024-01-24T03:13:44.357Z,95752.94
2024-01-24T03:16:13.489Z,95745.28
2024-01-24T03:18:41.404Z,95747.88
2024-01-24T03:21:10.534Z,95746.22
2024-01-24T03:23:39.964Z,95748.69
2024-01-24T03:26:07.823Z,95753.88
2024-01-24T03:28:35.553Z,95745.28
2024-01-24T03:31:03.490Z,95748.69
2024-01-24T03:33:32.333Z,95740.84
2024-01-24T03:35:59.855Z,95739.09
2024-01-24T03:38:27.381Z,95717.53
2024-01-24T03:40:54.885Z,95720.00
2024-01-24T03:43:22.382Z,95719.22
2024-01-24T03:45:50.077Z,95718.38
2024-01-24T03:48:17.762Z,95733.88
2024-01-24T03:50:46.645Z,95721.81
2024-01-24T03:53:14.150Z,95717.41
2024-01-24T03:55:41.740Z,95726.19
2024-01-24T03:58:09.305Z,95724.41
2024-01-24T04:00:36.948Z,95733.88
2024-01-24T04:03:04.716Z,95728.66
2024-01-24T04:05:32.231Z,95732.25
2024-01-24T04:08:01.317Z,95740.06
2024-01-24T04:10:28.800Z,95740.06
2024-01-24T04:12:56.352Z,95733.03
2024-01-24T04:15:23.983Z,95736.63
2024-01-24T04:17:51.537Z,95734.84
2024-01-24T04:20:19.109Z,95737.44
2024-01-24T04:22:46.625Z,95737.44
2024-01-24T04:25:15.734Z,95729.63
2024-01-24T04:27:43.292Z,95723.59
2024-01-24T04:30:11.274Z,95715.78
2024-01-24T04:32:38.880Z,95728.81
2024-01-24T04:35:06.958Z,95732.25
2024-01-24T04:37:34.476Z,95722.63
2024-01-24T04:40:01.971Z,95729.63
2024-01-24T04:42:30.810Z,95717.41
2024-01-24T04:44:58.387Z,95732.25
2024-01-24T04:47:26.138Z,95735.66
2024-01-24T04:49:54.048Z,95727.03
2024-01-24T04:52:21.713Z,95741.69
2024-01-24T04:54:49.309Z,95740.84
2024-01-24T04:57:16.917Z,95733.03
2024-01-24T04:59:52.721Z,95732.25
2024-01-24T05:02:24.147Z,95735.66
2024-01-24T05:04:51.832Z,95736.63
2024-01-24T05:07:19.470Z,95746.06
2024-01-24T05:09:47.026Z,95746.06
2024-01-24T05:12:14.661Z,95746.75
2024-01-24T05:14:42.389Z,95757.19
2024-01-24T05:17:11.284Z,95750.22
2024-01-24T05:19:38.830Z,95753.66
2024-01-24T05:22:06.356Z,95763.94
2024-01-24T05:24:33.916Z,95760.53
2024-01-24T05:27:01.457Z,95761.31
2024-01-24T05:29:28.940Z,95756.94
2024-01-24T05:31:56.443Z,95749.97
2024-01-24T05:34:25.371Z,95752.44
2024-01-24T05:36:54.649Z,95755.19
2024-01-24T05:39:22.333Z,95757.78
2024-01-24T05:41:49.845Z,95767.25
2024-01-24T05:44:17.404Z,95768.22
2024-01-24T05:46:44.936Z,95763.81
2024-01-24T05:49:12.622Z,95767.38
2024-01-24T05:51:43.518Z,95749.97
2024-01-24T05:54:11.203Z,95765.59
2024-01-24T05:56:39.467Z,95769.03
2024-01-24T05:59:07.470Z,95778.63
2024-01-24T06:01:35.165Z,95759.41
2024-01-24T06:04:02.971Z,95720.47
2024-01-24T06:06:30.658Z,95762.16
2024-01-24T06:08:59.675Z,95769.03
2024-01-24T06:11:27.152Z,95771.66
2024-01-24T06:13:54.933Z,95778.63
2024-01-24T06:16:22.816Z,95774.25
2024-01-24T06:18:50.387Z,95774.25
2024-01-24T06:21:18.098Z,95769.97
2024-01-24T06:23:45.576Z,95768.22
2024-01-24T06:26:14.901Z,95776.84
2024-01-24T06:28:42.395Z,95773.28
2024-01-24T06:31:09.899Z,95761.09
2024-01-24T06:33:37.567Z,95770.69
2024-01-24T06:36:05.402Z,95764.53
2024-01-24T06:38:33.296Z,95762.84
2024-01-24T06:41:00.790Z,95791.53
2024-01-24T06:43:30.093Z,95779.31
2024-01-24T06:45:57.733Z,95796.75
2024-01-24T06:48:25.388Z,95785.38
2024-01-24T06:50:55.212Z,95787.97
2024-01-24T06:53:22.716Z,95786.31
2024-01-24T06:55:51.147Z,95787.16
2024-01-24T06:58:18.822Z,95771.38
2024-01-24T07:00:47.889Z,95761.78
2024-01-24T07:03:19.395Z,95758.34
2024-01-24T07:05:48.649Z,95740.94
2024-01-24T07:08:16.197Z,95762.63
2024-01-24T07:10:43.714Z,95769.47
2024-01-24T07:13:11.311Z,95773.88
2024-01-24T07:15:38.880Z,95783.34
2024-01-24T07:18:08.039Z,95784.31
2024-01-24T07:20:35.630Z,95786.78
2024-01-24T07:23:03.505Z,95772.91
2024-01-24T07:25:30.980Z,95782.50
2024-01-24T07:27:58.541Z,95792.91
2024-01-24T07:30:26.193Z,95799.94
2024-01-24T07:32:53.781Z,95817.34
2024-01-24T07:35:22.659Z,95813.78
2024-01-24T07:37:50.618Z,95817.22
2024-01-24T07:40:18.135Z,95819.97
2024-01-24T07:42:45.807Z,95812.97
2024-01-24T07:45:13.608Z,95837.22
2024-01-24T07:47:41.288Z,95840.81
2024-01-24T07:50:10.130Z,95832.84
2024-01-24T07:52:42.206Z,95830.25
2024-01-24T07:55:12.346Z,95827.78
2024-01-24T07:57:41.126Z,95810.38
2024-01-24T08:00:09.329Z,95811.31
2024-01-24T08:02:37.191Z,95819.13
2024-01-24T08:05:05.070Z,95798.28
2024-01-24T08:07:34.448Z,95807.75
2024-01-24T08:10:03.513Z,95807.75
2024-01-24T08:12:31.114Z,95809.53
2024-01-24T08:14:58.644Z,95812.00
2024-01-24T08:17:26.560Z,95817.34
2024-01-24T08:19:54.309Z,95826.94
2024-01-24T08:22:21.948Z,95787.00
2024-01-24T08:24:49.491Z,95761.78
2024-01-24T08:27:19.346Z,95778.25
2024-01-24T08:29:46.911Z,95797.44
2024-01-24T08:32:14.446Z,95777.28
2024-01-24T08:34:42.030Z,95793.91
2024-01-24T08:37:10.436Z,95801.56
2024-01-24T08:39:38.519Z,95789.50
2024-01-24T08:42:06.257Z,95806.78
2024-01-24T08:44:35.088Z,95811.16
2024-01-24T08:47:02.679Z,95810.22
2024-01-24T08:49:30.274Z,95828.47
2024-01-24T08:51:57.875Z,95825.88
2024-01-24T08:54:25.443Z,95818.06
2024-01-24T08:56:53.147Z,95811.06
2024-01-24T08:59:20.643Z,95819.81
2024-01-24T09:01:49.568Z,95827.66
2024-01-24T09:04:17.286Z,95824.19
2024-01-24T09:06:45.603Z,95798.97
2024-01-24T09:09:15.065Z,95803.34
2024-01-24T09:11:50.381Z,95804.19
2024-01-24T09:14:23.893Z,95781.56
2024-01-24T09:16:52.806Z,95775.50
2024-01-24T09:19:21.483Z,95766.06
2024-01-24T09:21:49.305Z,95768.53
2024-01-24T09:24:17.785Z,95779.88
2024-01-24T09:26:45.353Z,95792.13
2024-01-24T09:29:13.852Z,95804.19
2024-01-24T09:31:44.548Z,95812.00
2024-01-24T09:34:14.209Z,95809.41
2024-01-24T09:36:41.918Z,95784.16
2024-01-24T09:39:10.336Z,95781.69
2024-01-24T09:41:40.887Z,95778.13
2024-01-24T09:44:07.843Z,95751.22
2024-01-24T09:46:36.730Z,95729.56
2024-01-24T09:49:04.637Z,95740.00
2024-01-24T09:51:34.771Z,95741.63
2024-01-24T09:54:04.022Z,95715.56
2024-01-24T09:56:33.929Z,95716.38
2024-01-24T09:59:01.559Z,95715.56
2024-01-24T10:01:30.167Z,95724.22
2024-01-24T10:03:58.197Z,95737.25
2024-01-24T10:06:28.090Z,95733.66
2024-01-24T10:08:57.519Z,95738.06
2024-01-24T10:11:25.911Z,95759.72
2024-01-24T10:13:57.005Z,95753.59
2024-01-24T10:16:25.225Z,95760.72
2024-01-24T10:18:52.816Z,95760.56
2024-01-24T10:21:20.594Z,95752.75
2024-01-24T10:23:48.121Z,95740.53
2024-01-24T10:26:17.782Z,95750.97
2024-01-24T10:28:45.817Z,95742.31
2024-01-24T10:31:14.076Z,95781.41
2024-01-24T10:33:41.836Z,95780.47
2024-01-24T10:36:18.012Z,95767.44
2024-01-24T10:38:57.139Z,95784.84
2024-01-24T10:41:26.806Z,95764.94
2024-01-24T10:43:58.243Z,95752.63
2024-01-24T10:46:26.396Z,95765.78
2024-01-24T10:48:55.580Z,95770.16
2024-01-24T10:51:23.235Z,95792.69
2024-01-24T10:53:51.272Z,95769.22
2024-01-24T10:56:19.594Z,95775.28
2024-01-24T10:58:50.144Z,95763.16
2024-01-24T11:01:18.097Z,95766.47
2024-01-24T11:03:46.327Z,95756.06
2024-01-24T11:06:15.537Z,95763.06
2024-01-24T11:08:51.271Z,95760.56
2024-01-24T11:11:22.138Z,95761.41
2024-01-24T11:13:52.626Z,95771.81
2024-01-24T11:16:29.929Z,95752.63
2024-01-24T11:18:59.791Z,95744.81
2024-01-24T11:21:30.127Z,95735.34
2024-01-24T11:23:58.374Z,95744.00
2024-01-24T11:26:44.611Z,95750.84
2024-01-24T11:29:14.186Z,95741.25
2024-01-24T11:31:42.477Z,95754.28
2024-01-24T11:34:11.157Z,95727.25
2024-01-24T11:36:42.775Z,95726.44
2024-01-24T11:39:32.436Z,95744.69
2024-01-24T11:42:14.953Z,95733.28
2024-01-24T11:44:44.199Z,95722.06
2024-01-24T11:47:12.220Z,95715.03
2024-01-24T11:49:39.990Z,95729.72
2024-01-24T11:52:07.801Z,95715.16
2024-01-24T11:54:35.340Z,95721.22
2024-01-24T11:57:03.540Z,95719.56
2024-01-24T11:59:31.098Z,95722.06
2024-01-24T12:02:00.003Z,95720.25
2024-01-24T12:04:27.672Z,95727.25
2024-01-24T12:06:55.361Z,95727.25
2024-01-24T12:09:24.328Z,95708.19
2024-01-24T12:11:52.169Z,95711.63
2024-01-24T12:14:19.904Z,95730.69
2024-01-24T12:16:48.258Z,95738.63
2024-01-24T12:19:17.594Z,95733.28
2024-01-24T12:21:46.103Z,95715.16
2024-01-24T12:24:13.728Z,95713.41
2024-01-24T12:26:42.297Z,95715.16
2024-01-24T12:29:10.647Z,95715.16
2024-01-24T12:31:39.610Z,95707.34
2024-01-24T12:34:08.726Z,95722.06
2024-01-24T12:36:37.707Z,95723.00
2024-01-24T12:39:06.013Z,95701.31
2024-01-24T12:41:34.466Z,95710.94
2024-01-24T12:44:02.128Z,95694.31
2024-01-24T12:46:31.176Z,95703.13
2024-01-24T12:48:59.357Z,95689.09
2024-01-24T12:51:27.009Z,95722.16
2024-01-24T12:53:55.899Z,95688.28
2024-01-24T12:56:23.498Z,95693.38
2024-01-24T12:58:51.839Z,95686.50
2024-01-24T13:01:19.419Z,95706.41
2024-01-24T13:03:47.105Z,95690.78
2024-01-24T13:06:16.365Z,95703.81
2024-01-24T13:08:44.237Z,95695.97
2024-01-24T13:11:13.448Z,95696.69
2024-01-24T13:13:40.968Z,95681.97
2024-01-24T13:16:08.907Z,95692.53
2024-01-24T13:18:36.526Z,95699.38
2024-01-24T13:21:04.508Z,95688.03
2024-01-24T13:23:31.970Z,95701.06
2024-01-24T13:26:00.818Z,95688.16
2024-01-24T13:28:29.721Z,95686.34
2024-01-24T13:30:57.850Z,95681.16
2024-01-24T13:33:25.649Z,95681.97
2024-01-24T13:35:53.317Z,95694.19
2024-01-24T13:38:21.006Z,95675.00
2024-01-24T13:40:48.911Z,95668.09
2024-01-24T13:43:16.621Z,95675.13
2024-01-24T13:45:46.905Z,95689.81
2024-01-24T13:48:14.526Z,95698.59
2024-01-24T13:50:42.107Z,95709.03
2024-01-24T13:53:11.695Z,95680.34
2024-01-24T13:55:39.285Z,95680.34
2024-01-24T13:58:07.025Z,95696.78
2024-01-24T14:00:34.732Z,95679.38
2024-01-24T14:03:03.773Z,95690.78
2024-01-24T14:05:31.459Z,95711.63
2024-01-24T14:07:59.216Z,95715.88
2024-01-24T14:10:26.841Z,95715.03
2024-01-24T14:12:54.593Z,95730.69
2024-01-24T14:15:32.486Z,95710.78
2024-01-24T14:18:04.289Z,95710.66
2024-01-24T14:20:32.093Z,95702.00
2024-01-24T14:22:59.577Z,95710.78
2024-01-24T14:25:27.059Z,95715.03
2024-01-24T14:27:55.482Z,95704.59
2024-01-24T14:30:23.228Z,95714.09
2024-01-24T14:32:51.598Z,95711.50
2024-01-24T14:35:20.794Z,95704.50
2024-01-24T14:37:48.557Z,95709.81
2024-01-24T14:40:17.174Z,95717.53
2024-01-24T14:42:44.783Z,95730.56
2024-01-24T14:45:12.566Z,95733.19
2024-01-24T14:47:40.284Z,95737.41
2024-01-24T14:50:09.038Z,95741.00
2024-01-24T14:52:38.169Z,95754.03
2024-01-24T14:55:06.511Z,95742.78
2024-01-24T14:57:34.224Z,95733.88
2024-01-24T15:00:01.868Z,95737.31
2024-01-24T15:02:29.405Z,95727.81
2024-01-24T15:04:58.408Z,95730.44
2024-01-24T15:07:26.397Z,95738.38
2024-01-24T15:09:55.374Z,95732.19
2024-01-24T15:12:23.118Z,95738.38
2024-01-24T15:14:50.698Z,95738.38
2024-01-24T15:17:19.897Z,95731.38
2024-01-24T15:19:49.666Z,95747.97
2024-01-24T15:22:20.401Z,95747.00
2024-01-24T15:24:49.908Z,95743.59
2024-01-24T15:27:19.119Z,95748.81
2024-01-24T15:29:47.065Z,95755.66
2024-01-24T15:32:14.590Z,95746.22
2024-01-24T15:34:42.237Z,95772.97
2024-01-24T15:37:09.990Z,95774.75
2024-01-24T15:39:37.563Z,95788.63
2024-01-24T15:42:09.776Z,95818.13
2024-01-24T15:44:38.987Z,95804.25
2024-01-24T15:47:07.292Z,95804.25
2024-01-24T15:49:34.975Z,95807.69
2024-01-24T15:52:02.861Z,95823.34
2024-01-24T15:54:30.407Z,95832.81
2024-01-24T15:56:58.444Z,95839.78
2024-01-24T15:59:26.031Z,95847.59
2024-01-24T16:01:55.095Z,95841.59
2024-01-24T16:04:22.791Z,95845.84
2024-01-24T16:06:50.739Z,95855.31
2024-01-24T16:09:18.770Z,95880.44
2024-01-24T16:11:46.502Z,95877.81
2024-01-24T16:14:15.454Z,95889.09
2024-01-24T16:16:43.032Z,95895.25
2024-01-24T16:19:12.009Z,95902.13
2024-01-24T16:21:44.313Z,95910.78
2024-01-24T16:24:11.799Z,95910.78
2024-01-24T16:26:39.282Z,95929.03
2024-01-24T16:29:06.817Z,95925.59
2024-01-24T16:31:34.330Z,95904.72
2024-01-24T16:34:01.853Z,95923.91
2024-01-24T16:36:30.818Z,95937.78
2024-01-24T16:38:58.327Z,95937.78
2024-01-24T16:41:25.866Z,95937.78
2024-01-24T16:43:53.379Z,95935.31
2024-01-24T16:46:20.862Z,95951.78
2024-01-24T16:48:48.468Z,95941.38
2024-01-24T16:51:16.058Z,95938.75
2024-01-24T16:53:44.945Z,95950.00
2024-01-24T16:56:12.444Z,95965.78
2024-01-24T16:58:41.592Z,95963.16
2024-01-24T17:01:09.318Z,95973.59
2024-01-24T17:03:37.032Z,95975.25
2024-01-24T17:06:08.049Z,95976.91
2024-01-24T17:08:35.827Z,95970.03
2024-01-24T17:11:04.830Z,95976.91
2024-01-24T17:13:32.346Z,95983.88
2024-01-24T17:16:00.023Z,95982.81
2024-01-24T17:18:27.940Z,95978.56
2024-01-24T17:20:55.544Z,95988.16
2024-01-24T17:23:23.667Z,95998.59
2024-01-24T17:25:51.186Z,96001.19
2024-01-24T17:28:20.522Z,95998.47
2024-01-24T17:30:48.910Z,96008.88
2024-01-24T17:33:16.664Z,96005.44
2024-01-24T17:35:44.402Z,96008.06
2024-01-24T17:38:11.979Z,96011.50
2024-01-24T17:40:39.528Z,96005.44
2024-01-24T17:43:07.227Z,96007.25
2024-01-24T17:45:36.183Z,96019.44
2024-01-24T17:48:04.074Z,96021.09
2024-01-24T17:50:31.708Z,96020.28
2024-01-24T17:52:59.660Z,96031.53
2024-01-24T17:55:29.184Z,96041.94
2024-01-24T17:57:56.919Z,96042.78
2024-01-24T18:00:24.647Z,96026.31
2024-01-24T18:02:53.678Z,96031.53
2024-01-24T18:05:21.527Z,96041.94
2024-01-24T18:07:49.643Z,96044.47
2024-01-24T18:10:17.518Z,96034.88
2024-01-24T18:12:45.084Z,96045.28
2024-01-24T18:15:12.632Z,96041.72
2024-01-24T18:17:40.379Z,96017.41
2024-01-24T18:20:10.016Z,96030.44
2024-01-24T18:22:37.617Z,96031.41
2024-01-24T18:25:06.106Z,96036.63
2024-01-24T18:27:33.734Z,96062.72
2024-01-24T18:30:01.258Z,96062.72
2024-01-24T18:32:28.808Z,96056.66
2024-01-24T18:34:56.807Z,96051.44
2024-01-24T18:37:25.713Z,96054.88
2024-01-24T18:39:53.213Z,96060.94
2024-01-24T18:42:22.816Z,96053.91
2024-01-24T18:44:50.458Z,96043.50
2024-01-24T18:47:18.140Z,96043.38
2024-01-24T18:49:45.984Z,96057.22
2024-01-24T18:52:13.900Z,96063.28
2024-01-24T18:54:44.113Z,96082.38
2024-01-24T18:57:12.841Z,96062.34
2024-01-24T18:59:40.766Z,96068.50
2024-01-24T19:02:08.565Z,96061.50
2024-01-24T19:04:36.689Z,96066.72
2024-01-24T19:07:04.478Z,96075.38
2024-01-24T19:09:33.421Z,96073.63
2024-01-24T19:12:02.393Z,96066.72
2024-01-24T19:14:30.005Z,96067.56
2024-01-24T19:16:57.602Z,96056.28
2024-01-24T19:19:26.652Z,96061.50
2024-01-24T19:21:55.633Z,96069.34
2024-01-24T19:24:23.230Z,96067.66
2024-01-24T19:26:50.715Z,96055.47
2024-01-24T19:29:20.501Z,96058.06
2024-01-24T19:31:49.654Z,96052.84
2024-01-24T19:34:18.282Z,96064.13
2024-01-24T19:36:45.918Z,96075.50
2024-01-24T19:39:14.910Z,96074.69
2024-01-24T19:41:42.476Z,96083.31
2024-01-24T19:44:09.985Z,96085.81
2024-01-24T19:46:39.800Z,96098.03
2024-01-24T19:49:07.448Z,96085.81
2024-01-24T19:51:36.277Z,96090.19
2024-01-24T19:54:06.213Z,96087.59
2024-01-24T19:56:33.716Z,96086.75
2024-01-24T19:59:01.194Z,96096.25
2024-01-24T20:01:28.792Z,96091.97
2024-01-24T20:03:57.717Z,96088.44
2024-01-24T20:06:25.283Z,96092.81
2024-01-24T20:08:53.368Z,96097.19
2024-01-24T20:11:21.406Z,96087.59
2024-01-24T20:13:49.989Z,96081.53
2024-01-24T20:16:17.600Z,96084.16
2024-01-24T20:18:45.293Z,96098.84
2024-01-24T20:21:14.181Z,96096.25
2024-01-24T20:23:41.682Z,96096.25
2024-01-24T20:26:10.874Z,96097.88
2024-01-24T20:28:38.632Z,96101.47
2024-01-24T20:31:06.166Z,96104.91
2024-01-24T20:33:40.662Z,96110.94
2024-01-24T20:36:08.968Z,96115.34
2024-01-24T20:38:37.850Z,96117.94
2024-01-24T20:41:08.293Z,96111.06
2024-01-24T20:43:38.479Z,96116.28
2024-01-24T20:46:05.994Z,96118.88
2024-01-24T20:48:33.551Z,96124.94
2024-01-24T20:51:01.111Z,96131.09
2024-01-24T20:53:28.629Z,96131.00
2024-01-24T20:55:57.599Z,96130.16
2024-01-24T20:58:24.272Z,96124.69
2024-01-24T21:00:51.933Z,96132.41
2024-01-24T21:03:19.656Z,96130.59
2024-01-24T21:05:47.344Z,96134.16
2024-01-24T21:08:15.064Z,96136.78
2024-01-24T21:10:52.118Z,96129.09
2024-01-24T21:13:26.080Z,96129.09
2024-01-24T21:15:54.136Z,96125.63
2024-01-24T21:18:22.795Z,96122.19
2024-01-24T21:20:51.022Z,96115.34
2024-01-24T21:23:19.252Z,96122.31
2024-01-24T21:25:47.058Z,96115.34
2024-01-24T21:28:14.838Z,96093.63
2024-01-24T21:30:43.875Z,96105.84
2024-01-24T21:33:11.567Z,96111.91
2024-01-24T21:35:39.408Z,96117.94
2024-01-24T21:38:07.160Z,96114.50
2024-01-24T21:41:03.979Z,96118.88
2024-01-24T21:47:36.485Z,96118.03
2024-01-24T21:54:00.085Z,96138.91
2024-01-24T22:00:23.092Z,96130.25
2024-01-24T22:07:02.646Z,96134.53
2024-01-24T22:13:31.437Z,96141.66
2024-01-24T22:47:26.717Z,96158.84
2024-01-24T22:54:12.049Z,96169.25
2024-01-24T22:57:17.698Z,96161.44
2024-01-24T23:00:16.597Z,96156.22
2024-01-24T23:03:14.574Z,96158.00
2024-01-24T23:06:00.220Z,96161.44
2024-01-24T23:08:27.802Z,96154.56
2024-01-24T23:10:56.732Z,96171.16
2024-01-24T23:13:24.241Z,96164.16
2024-01-24T23:15:52.456Z,96157.28
2024-01-24T23:18:20.169Z,96158.13
2024-01-24T23:20:47.702Z,96149.47
2024-01-24T23:23:15.560Z,96145.09
2024-01-24T23:25:43.096Z,96147.69
2024-01-24T23:28:12.224Z,96142.56
2024-01-24T23:30:39.773Z,96132.97
2024-01-24T23:33:07.399Z,96135.59
2024-01-24T23:35:34.985Z,96136.44
2024-01-24T23:38:02.621Z,96133.81
2024-01-24T23:40:30.348Z,96135.59
2024-01-24T23:42:57.968Z,96132.97
2024-01-24T23:48:26.659Z,96097.44
2024-01-24T23:50:54.644Z,96097.44
2024-01-24T23:53:22.328Z,96094.94
2024-01-24T23:55:50.572Z,96092.22
2024-01-24T23:58:19.351Z,96077.53
